Time;durP1;ratioP1;P1;durP2;ratioP2;P2;SDS_P1;SDS_P2;PMS_P1;PMS_P2;Temp;Humidity;BMP_temperature;BMP_pressure;BME280_temperature;BME280_humidity;BME280_pressure;Samples;Min_cycle;Max_cycle;Signal;HPM_P1;HPM_P2
2021/07/13 00:00:47;;;;;;;68.18;50.95;;;19.80;99.90;;;;;;5113476;28;20040;-74
2021/07/13 00:03:13;;;;;;;67.85;53.25;;;19.80;99.90;;;;;;5113898;28;20067;-73
2021/07/13 00:05:40;;;;;;;66.25;51.58;;;19.70;99.90;;;;;;5112412;28;20407;-73
2021/07/13 00:08:06;;;;;;;71.45;52.55;;;19.70;99.90;;;;;;5113518;28;20487;-73
2021/07/13 00:10:36;;;;;;;73.00;54.42;;;19.70;99.90;;;;;;5113267;28;20035;-73
2021/07/13 00:13:01;;;;;;;74.70;55.67;;;19.70;99.90;;;;;;5113312;28;20507;-73
2021/07/13 00:15:32;;;;;;;67.25;54.42;;;19.70;99.90;;;;;;5113337;28;20070;-73
2021/07/13 00:17:58;;;;;;;72.82;54.38;;;19.70;99.90;;;;;;5113794;28;20047;-73
2021/07/13 00:20:25;;;;;;;63.83;50.58;;;19.70;99.90;;;;;;5113046;28;20039;-73
2021/07/13 00:22:51;;;;;;;67.97;54.72;;;19.70;99.90;;;;;;5113509;28;20035;-73
2021/07/13 00:25:18;;;;;;;72.15;56.00;;;19.70;99.90;;;;;;5114003;28;20059;-73
2021/07/13 00:27:44;;;;;;;70.97;54.75;;;19.70;99.90;;;;;;5113755;28;20044;-73
2021/07/13 00:30:12;;;;;;;73.03;55.95;;;19.70;99.90;;;;;;5112972;28;20118;-73
2021/07/13 00:32:39;;;;;;;67.93;52.65;;;19.70;99.90;;;;;;5116881;28;20494;-73
2021/07/13 00:35:06;;;;;;;72.30;53.42;;;19.70;99.90;;;;;;5117632;28;20392;-73
2021/07/13 00:37:33;;;;;;;75.35;57.30;;;19.70;99.90;;;;;;5116986;28;20043;-73
2021/07/13 00:39:59;;;;;;;74.78;55.65;;;19.70;99.90;;;;;;5116475;27;20036;-73
2021/07/13 00:42:25;;;;;;;72.80;55.58;;;19.70;99.90;;;;;;5117532;28;20482;-73
2021/07/13 00:44:51;;;;;;;71.45;53.97;;;19.70;99.90;;;;;;5117602;28;20032;-72
2021/07/13 00:47:21;;;;;;;69.55;52.78;;;19.70;99.90;;;;;;5116689;28;20051;-72
2021/07/13 00:49:48;;;;;;;67.97;52.25;;;19.70;99.90;;;;;;5116785;28;20035;-73
2021/07/13 00:52:15;;;;;;;72.32;54.55;;;19.70;99.90;;;;;;5116642;28;20039;-73
2021/07/13 00:54:47;;;;;;;73.22;54.63;;;19.70;99.90;;;;;;5116799;28;20483;-73
2021/07/13 00:57:13;;;;;;;74.97;55.53;;;19.60;99.90;;;;;;5116719;28;20044;-73
2021/07/13 00:59:40;;;;;;;74.20;57.28;;;19.60;99.90;;;;;;5116255;28;20043;-73
2021/07/13 01:02:10;;;;;;;71.40;55.17;;;19.50;99.90;;;;;;5116372;28;20456;-73
2021/07/13 01:05:09;;;;;;;70.47;52.97;;;19.60;99.90;;;;;;5116716;28;20035;-73
2021/07/13 01:08:04;;;;;;;73.22;52.92;;;19.60;99.90;;;;;;5115560;28;20104;-73
2021/07/13 01:11:03;;;;;;;68.70;51.45;;;19.60;99.90;;;;;;5116191;28;20123;-73
2021/07/13 01:13:52;;;;;;;68.75;50.58;;;19.60;99.90;;;;;;5116167;28;20074;-72
2021/07/13 01:16:25;;;;;;;63.50;49.53;;;19.50;99.90;;;;;;5115877;28;20047;-73
2021/07/13 01:19:13;;;;;;;73.22;52.83;;;19.50;99.90;;;;;;5115896;28;20046;-73
2021/07/13 01:22:17;;;;;;;63.22;49.25;;;19.50;99.90;;;;;;5116679;28;20043;-73
2021/07/13 01:24:52;;;;;;;59.00;48.33;;;19.40;99.90;;;;;;5100046;28;20551;-73
2021/07/13 01:27:42;;;;;;;64.97;49.35;;;19.50;99.90;;;;;;5116145;28;20429;-73
2021/07/13 01:30:13;;;;;;;63.70;47.55;;;19.40;99.90;;;;;;5116120;28;20040;-73
2021/07/13 01:32:41;;;;;;;63.45;49.55;;;19.40;99.90;;;;;;5116521;28;20071;-72
2021/07/13 01:35:12;;;;;;;65.95;49.28;;;19.40;99.90;;;;;;5115865;28;20031;-72
2021/07/13 01:37:40;;;;;;;67.20;49.17;;;19.40;99.90;;;;;;5116119;28;20387;-72
2021/07/13 01:40:08;;;;;;;64.85;48.05;;;19.40;99.90;;;;;;5115739;28;20038;-73
2021/07/13 01:42:38;;;;;;;65.18;48.33;;;19.30;99.90;;;;;;5115124;28;20039;-72
2021/07/13 01:45:04;;;;;;;61.45;46.95;;;19.30;99.90;;;;;;5116100;28;20032;-73
2021/07/13 01:47:33;;;;;;;74.80;51.58;;;19.20;99.90;;;;;;5115794;28;20111;-72
2021/07/13 01:50:00;;;;;;;71.75;52.85;;;19.20;99.90;;;;;;5115410;28;20036;-72
2021/07/13 01:52:28;;;;;;;70.88;49.47;;;19.10;99.90;;;;;;5115531;28;20050;-72
2021/07/13 01:54:56;;;;;;;66.82;50.25;;;19.10;99.90;;;;;;5116127;28;20559;-72
2021/07/13 01:57:25;;;;;;;64.53;48.45;;;19.10;99.90;;;;;;5115459;28;20483;-72
2021/07/13 01:59:52;;;;;;;61.33;48.55;;;19.10;99.90;;;;;;5115263;28;20038;-72
2021/07/13 02:02:18;;;;;;;67.78;50.55;;;19.10;99.90;;;;;;5115445;28;20086;-72
2021/07/13 02:04:47;;;;;;;63.15;48.78;;;19.10;99.90;;;;;;5114213;28;20035;-72
2021/07/13 02:07:13;;;;;;;64.50;49.50;;;19.20;99.90;;;;;;5115199;28;20403;-72
2021/07/13 02:09:43;;;;;;;65.00;48.50;;;19.10;99.90;;;;;;5115059;28;20035;-72
2021/07/13 02:12:08;;;;;;;61.72;47.55;;;19.10;99.90;;;;;;5115449;28;20480;-72
2021/07/13 02:14:34;;;;;;;69.53;50.35;;;19.20;99.90;;;;;;5115119;28;20046;-73
2021/07/13 02:17:00;;;;;;;67.45;50.83;;;19.20;99.90;;;;;;5115033;28;20043;-72
2021/07/13 02:19:27;;;;;;;67.75;51.28;;;19.10;99.90;;;;;;5115287;28;20032;-73
2021/07/13 02:21:55;;;;;;;63.47;48.92;;;19.00;99.90;;;;;;5115563;28;20046;-73
2021/07/13 02:24:21;;;;;;;60.95;47.85;;;19.00;99.90;;;;;;5115422;28;20043;-73
2021/07/13 02:26:51;;;;;;;57.22;45.85;;;19.10;99.90;;;;;;5114696;28;20042;-73
2021/07/13 02:29:36;;;;;;;65.13;50.20;;;19.20;99.90;;;;;;5114721;28;20039;-73
2021/07/13 02:32:10;;;;;;;60.05;47.00;;;19.20;99.90;;;;;;5114717;28;20118;-73
2021/07/13 02:34:39;;;;;;;64.43;48.05;;;19.10;99.90;;;;;;5114817;28;20411;-73
2021/07/13 02:37:07;;;;;;;66.00;46.35;;;19.10;99.90;;;;;;5115333;28;20066;-73
2021/07/13 02:39:34;;;;;;;70.93;51.50;;;19.10;99.90;;;;;;5114524;28;20123;-73
2021/07/13 02:42:01;;;;;;;67.85;49.63;;;19.00;99.90;;;;;;5114689;28;20084;-72
2021/07/13 02:44:31;;;;;;;64.60;48.33;;;19.00;99.90;;;;;;5114422;28;20047;-72
2021/07/13 02:46:57;;;;;;;63.05;46.72;;;18.90;99.90;;;;;;5114554;28;20383;-73
2021/07/13 02:49:30;;;;;;;64.85;49.08;;;18.90;99.90;;;;;;5114222;28;20049;-72
2021/07/13 02:51:57;;;;;;;;;;;18.90;99.90;;;;;;5115129;28;20043;-72
2021/07/13 02:54:27;;;;;;;60.08;44.63;;;18.90;99.90;;;;;;5112420;28;19920;-72
2021/07/13 02:56:55;;;;;;;61.38;47.97;;;19.00;99.90;;;;;;5114469;28;20046;-72
2021/07/13 02:59:23;;;;;;;60.25;47.80;;;19.00;99.90;;;;;;5113912;28;20031;-73
2021/07/13 03:01:50;;;;;;;58.40;46.47;;;19.00;99.90;;;;;;5114676;28;20040;-72
2021/07/13 03:04:16;;;;;;;62.80;47.65;;;18.90;99.90;;;;;;5114084;28;20035;-72
2021/07/13 03:06:42;;;;;;;64.03;47.00;;;18.90;99.90;;;;;;5114036;28;20039;-72
2021/07/13 03:09:08;;;;;;;65.60;47.90;;;18.80;99.90;;;;;;5114040;28;20084;-72
2021/07/13 03:11:36;;;;;;;57.15;48.05;;;18.80;99.90;;;;;;5114647;28;20452;-73
2021/07/13 03:14:03;;;;;;;69.60;48.97;;;18.80;99.90;;;;;;5114094;28;20028;-73
2021/07/13 03:16:33;;;;;;;61.40;47.75;;;18.80;99.90;;;;;;5113952;28;20042;-73
2021/07/13 03:18:59;;;;;;;60.83;48.67;;;18.90;99.90;;;;;;5114100;28;20459;-73
2021/07/13 03:21:34;;;;;;;62.85;48.28;;;18.80;99.90;;;;;;5113867;28;20036;-73
2021/07/13 03:24:03;;;;;;;64.75;50.17;;;18.90;99.90;;;;;;5114345;28;20118;-73
2021/07/13 03:26:31;;;;;;;69.22;49.20;;;18.80;99.90;;;;;;5114118;28;20070;-73
2021/07/13 03:29:01;;;;;;;53.58;45.63;;;18.90;99.90;;;;;;5113526;28;20398;-73
2021/07/13 03:31:27;;;;;;;67.03;50.50;;;18.90;99.90;;;;;;5114301;28;20116;-72
2021/07/13 03:34:00;;;;;;;64.80;49.55;;;18.90;99.90;;;;;;5113752;28;20525;-73
2021/07/13 03:36:26;;;;;;;62.60;47.75;;;18.80;99.90;;;;;;5114056;28;20498;-73
2021/07/13 03:38:52;;;;;;;67.68;49.38;;;18.90;99.90;;;;;;5113677;28;20398;-73
2021/07/13 03:41:19;;;;;;;66.85;50.00;;;18.90;99.90;;;;;;5113774;28;20041;-73
2021/07/13 03:43:45;;;;;;;60.25;49.10;;;18.80;99.90;;;;;;5114635;28;20085;-73
2021/07/13 03:46:11;;;;;;;63.00;46.15;;;18.80;99.90;;;;;;5114237;28;20043;-73
2021/07/13 03:48:39;;;;;;;59.38;46.28;;;18.90;99.90;;;;;;5113737;28;20391;-73
2021/07/13 03:51:05;;;;;;;59.63;48.85;;;18.90;99.90;;;;;;5113845;28;20065;-72
2021/07/13 03:53:31;;;;;;;68.20;50.03;;;18.90;99.90;;;;;;5114088;28;20035;-73
2021/07/13 03:55:57;;;;;;;64.55;49.40;;;18.90;99.90;;;;;;5113595;28;20035;-73
2021/07/13 03:58:23;;;;;;;69.18;52.20;;;19.00;99.90;;;;;;5113444;28;20540;-73
2021/07/13 04:00:48;;;;;;;66.53;52.22;;;18.90;99.90;;;;;;5113403;28;20417;-72
2021/07/13 04:03:15;;;;;;;74.05;54.42;;;18.80;99.90;;;;;;5113692;28;20042;-73
2021/07/13 04:05:41;;;;;;;65.80;50.13;;;18.80;99.90;;;;;;5114198;28;20031;-73
2021/07/13 04:08:07;;;;;;;79.60;57.13;;;18.80;99.90;;;;;;5117878;28;20097;-73
2021/07/13 04:10:33;;;;;;;70.03;54.75;;;18.80;99.90;;;;;;5117152;28;20047;-73
2021/07/13 04:12:59;;;;;;;71.47;53.80;;;18.80;99.90;;;;;;5117443;28;20036;-73
2021/07/13 04:15:25;;;;;;;80.03;57.47;;;18.80;99.90;;;;;;5117446;28;20032;-73
2021/07/13 04:17:51;;;;;;;73.60;55.95;;;18.80;99.90;;;;;;5117303;28;20123;-72
2021/07/13 04:20:16;;;;;;;73.80;56.65;;;18.80;99.90;;;;;;5117374;28;20042;-73
2021/07/13 04:22:44;;;;;;;80.70;59.53;;;18.80;99.90;;;;;;5117917;28;20038;-73
2021/07/13 04:25:11;;;;;;;78.40;58.63;;;18.80;99.90;;;;;;5117176;28;20064;-73
2021/07/13 04:27:37;;;;;;;80.22;59.72;;;18.90;99.90;;;;;;5117088;28;20512;-73
2021/07/13 04:30:04;;;;;;;79.15;60.47;;;18.90;99.90;;;;;;5116833;28;20046;-73
2021/07/13 04:32:31;;;;;;;72.95;55.38;;;18.90;99.90;;;;;;5117309;28;20031;-73
2021/07/13 04:34:57;;;;;;;77.35;57.25;;;19.00;99.90;;;;;;5117141;28;20479;-73
2021/07/13 04:37:24;;;;;;;73.38;55.58;;;19.10;99.90;;;;;;5117478;28;20040;-73
2021/07/13 04:39:51;;;;;;;76.68;57.20;;;19.20;99.90;;;;;;5116742;28;20043;-73
2021/07/13 04:42:17;;;;;;;79.95;59.28;;;19.30;99.90;;;;;;5116803;28;20032;-73
2021/07/13 04:44:42;;;;;;;76.78;58.10;;;19.30;99.90;;;;;;5116861;28;20035;-73
2021/07/13 04:47:08;;;;;;;78.00;59.10;;;19.40;99.90;;;;;;5116752;28;20036;-73
2021/07/13 04:49:34;;;;;;;78.30;59.92;;;19.40;99.90;;;;;;5116766;28;20093;-73
2021/07/13 04:52:01;;;;;;;74.97;58.20;;;19.40;99.90;;;;;;5117210;28;20032;-73
2021/07/13 04:54:31;;;;;;;72.75;55.20;;;19.50;99.90;;;;;;5117209;28;20043;-73
2021/07/13 04:56:58;;;;;;;77.25;55.08;;;19.60;99.90;;;;;;5116839;28;20559;-73
2021/07/13 04:59:24;;;;;;;72.03;56.75;;;19.60;99.90;;;;;;5116777;28;20031;-73
2021/07/13 05:01:50;;;;;;;70.03;55.10;;;19.70;99.90;;;;;;5116692;28;20031;-73
2021/07/13 05:04:16;;;;;;;73.75;56.72;;;19.60;99.90;;;;;;5116485;28;20051;-73
2021/07/13 05:06:41;;;;;;;69.80;54.70;;;19.60;99.90;;;;;;5116305;28;20031;-73
2021/07/13 05:09:07;;;;;;;70.55;53.40;;;19.70;99.90;;;;;;5116501;28;20032;-73
2021/07/13 05:11:33;;;;;;;71.55;54.97;;;19.80;99.90;;;;;;5116864;28;20035;-73
2021/07/13 05:14:03;;;;;;;69.65;51.47;;;19.80;99.90;;;;;;5116318;28;20027;-73
2021/07/13 05:16:30;;;;;;;65.85;50.90;;;19.90;99.90;;;;;;5116674;28;20176;-73
2021/07/13 05:18:58;;;;;;;69.55;52.03;;;19.80;99.90;;;;;;5115153;28;20428;-72
2021/07/13 05:21:24;;;;;;;70.85;54.25;;;19.90;99.90;;;;;;5116699;28;20451;-73
2021/07/13 05:23:49;;;;;;;69.35;53.08;;;19.90;99.90;;;;;;5116630;27;20038;-73
2021/07/13 05:26:16;;;;;;;69.10;53.05;;;19.80;99.90;;;;;;5116044;28;20031;-73
2021/07/13 05:28:42;;;;;;;69.07;54.08;;;19.90;99.90;;;;;;5115614;28;20078;-73
2021/07/13 05:31:08;;;;;;;64.85;49.65;;;20.00;99.90;;;;;;5116315;28;20062;-73
2021/07/13 05:33:34;;;;;;;65.13;52.17;;;19.90;99.90;;;;;;5116165;28;20476;-73
2021/07/13 05:35:59;;;;;;;66.10;52.17;;;19.90;99.90;;;;;;5116285;28;20036;-73
2021/07/13 05:38:25;;;;;;;68.75;50.95;;;19.90;99.90;;;;;;5116443;28;20051;-73
2021/07/13 05:40:51;;;;;;;67.03;49.95;;;20.00;99.90;;;;;;5114703;28;20044;-73
2021/07/13 05:43:17;;;;;;;63.03;49.92;;;20.10;99.90;;;;;;5115870;28;20115;-72
2021/07/13 05:45:44;;;;;;;61.22;48.80;;;20.10;99.90;;;;;;5115792;28;20155;-73
2021/07/13 05:48:10;;;;;;;59.83;47.35;;;20.20;99.90;;;;;;5115672;28;20043;-73
2021/07/13 05:50:36;;;;;;;59.75;49.22;;;20.20;99.90;;;;;;5115198;28;20035;-72
2021/07/13 05:53:03;;;;;;;57.83;47.35;;;20.20;99.90;;;;;;5115521;28;20038;-73
2021/07/13 05:55:29;;;;;;;61.25;46.38;;;20.30;99.90;;;;;;5115440;28;20050;-73
2021/07/13 05:57:55;;;;;;;58.15;45.22;;;20.30;99.90;;;;;;5115340;27;20043;-72
2021/07/13 06:00:21;;;;;;;61.28;45.20;;;20.40;99.90;;;;;;5115120;28;20115;-72
2021/07/13 06:02:47;;;;;;;59.20;47.50;;;20.40;99.90;;;;;;5115817;28;20047;-72
2021/07/13 06:05:13;;;;;;;54.80;44.47;;;20.40;99.90;;;;;;5115862;28;20035;-72
2021/07/13 06:07:47;;;;;;;57.45;43.92;;;20.40;99.90;;;;;;5115825;28;20049;-72
2021/07/13 06:10:13;;;;;;;57.53;41.63;;;20.30;99.90;;;;;;5115033;28;20104;-73
2021/07/13 06:12:40;;;;;;;53.80;41.33;;;20.50;99.90;;;;;;5115289;28;20036;-72
2021/07/13 06:15:07;;;;;;;53.88;40.83;;;20.40;99.90;;;;;;5115175;28;20546;-73
2021/07/13 06:17:34;;;;;;;50.92;40.08;;;20.50;99.90;;;;;;5115250;28;20043;-73
2021/07/13 06:20:00;;;;;;;50.97;39.38;;;20.50;99.90;;;;;;5114648;28;20484;-73
2021/07/13 06:22:26;;;;;;;55.15;40.97;;;20.60;99.90;;;;;;5115603;28;20040;-72
2021/07/13 06:24:52;;;;;;;45.97;37.58;;;20.50;99.90;;;;;;5114858;28;20160;-72
2021/07/13 06:27:17;;;;;;;52.47;39.95;;;20.60;99.90;;;;;;5115063;28;20035;-73
2021/07/13 06:29:43;;;;;;;48.03;38.30;;;20.50;99.90;;;;;;5114266;28;20049;-73
2021/07/13 06:32:09;;;;;;;46.60;36.78;;;20.50;99.90;;;;;;5115270;28;20114;-73
2021/07/13 06:34:35;;;;;;;44.17;35.92;;;20.50;99.90;;;;;;5114849;28;20078;-73
2021/07/13 06:37:01;;;;;;;42.88;34.88;;;20.70;99.90;;;;;;5115296;28;20043;-72
2021/07/13 06:39:27;;;;;;;42.25;34.92;;;20.70;99.90;;;;;;5114693;28;20464;-73
2021/07/13 06:41:53;;;;;;;37.40;31.50;;;20.80;99.90;;;;;;5114843;28;20036;-73
2021/07/13 06:44:19;;;;;;;40.42;32.33;;;20.80;99.90;;;;;;5114777;28;20047;-72
2021/07/13 06:46:44;;;;;;;36.30;30.80;;;20.90;99.90;;;;;;5114303;28;20028;-71
2021/07/13 06:49:10;;;;;;;38.72;31.10;;;21.00;99.90;;;;;;5114399;28;20404;-71
2021/07/13 06:51:36;;;;;;;37.67;30.55;;;20.90;99.90;;;;;;5114778;28;20039;-72
2021/07/13 06:54:01;;;;;;;42.33;30.00;;;21.00;99.90;;;;;;5114444;28;20058;-71
2021/07/13 06:56:28;;;;;;;36.85;32.53;;;21.00;99.90;;;;;;5114682;28;20040;-72
2021/07/13 06:58:54;;;;;;;38.08;30.25;;;21.10;99.90;;;;;;5114175;28;20434;-72
2021/07/13 07:01:20;;;;;;;34.80;30.20;;;21.10;99.90;;;;;;5114119;28;20139;-72
2021/07/13 07:03:46;;;;;;;40.70;31.88;;;21.10;99.90;;;;;;5114427;28;20084;-72
2021/07/13 07:06:11;;;;;;;43.90;31.25;;;21.10;99.90;;;;;;5114155;28;20035;-72
2021/07/13 07:08:37;;;;;;;42.85;32.08;;;21.20;99.90;;;;;;5113823;28;20036;-72
2021/07/13 07:11:03;;;;;;;39.88;31.38;;;21.10;99.90;;;;;;5113977;28;20481;-72
2021/07/13 07:13:28;;;;;;;34.60;28.80;;;21.10;99.90;;;;;;5114151;28;20118;-72
2021/07/13 07:15:56;;;;;;;38.45;29.35;;;21.20;99.90;;;;;;5114203;28;20114;-72
2021/07/13 07:18:21;;;;;;;42.90;33.85;;;21.30;99.90;;;;;;5113531;28;20066;-72
2021/07/13 07:20:47;;;;;;;44.33;32.30;;;21.30;99.90;;;;;;5114528;28;20040;-72
2021/07/13 07:23:13;;;;;;;43.70;32.22;;;21.30;99.90;;;;;;5114129;28;20040;-72
2021/07/13 07:25:38;;;;;;;42.72;32.58;;;21.30;99.90;;;;;;5113910;28;20161;-72
2021/07/13 07:28:04;;;;;;;43.15;30.40;;;21.40;99.90;;;;;;5113697;28;20039;-71
2021/07/13 07:30:30;;;;;;;39.38;28.27;;;21.40;99.90;;;;;;5113914;28;20031;-71
2021/07/13 07:32:58;;;;;;;42.88;28.83;;;21.30;99.90;;;;;;5114251;28;20043;-71
2021/07/13 07:35:24;;;;;;;39.33;29.33;;;21.40;99.90;;;;;;5113608;28;20035;-71
2021/07/13 07:37:50;;;;;;;34.88;28.13;;;21.50;99.90;;;;;;5113917;28;20110;-71
2021/07/13 07:40:18;;;;;;;31.13;26.70;;;21.50;99.90;;;;;;5113200;28;20059;-71
2021/07/13 07:42:53;;;;;;;33.63;27.45;;;21.40;99.90;;;;;;5112491;28;20514;-72
2021/07/13 07:45:20;;;;;;;33.83;25.48;;;21.60;99.90;;;;;;5113863;28;20036;-73
2021/07/13 07:47:47;;;;;;;34.30;26.08;;;21.70;99.90;;;;;;5114209;28;20048;-73
2021/07/13 07:50:13;;;;;;;33.63;25.83;;;21.70;99.90;;;;;;5113206;28;20499;-73
2021/07/13 07:52:39;;;;;;;34.20;26.60;;;21.80;99.90;;;;;;5113930;28;20471;-73
2021/07/13 07:55:06;;;;;;;27.42;23.55;;;21.90;99.90;;;;;;5113800;28;20092;-72
2021/07/13 07:57:33;;;;;;;31.10;24.23;;;21.90;99.90;;;;;;5114040;28;20043;-72
2021/07/13 07:59:59;;;;;;;30.95;22.75;;;21.90;99.90;;;;;;5113132;28;20031;-72
2021/07/13 08:02:24;;;;;;;27.60;22.55;;;21.80;99.90;;;;;;5113785;28;20043;-71
2021/07/13 08:04:50;;;;;;;28.98;22.63;;;22.00;99.90;;;;;;5113677;28;20043;-72
2021/07/13 08:07:18;;;;;;;26.70;22.95;;;22.10;99.90;;;;;;5113416;28;20403;-71
2021/07/13 08:09:45;;;;;;;26.73;21.75;;;22.20;99.90;;;;;;5112207;28;20076;-72
2021/07/13 08:12:10;;;;;;;26.48;23.05;;;22.30;99.90;;;;;;5113346;28;20031;-72
2021/07/13 08:14:36;;;;;;;27.33;23.02;;;22.30;99.90;;;;;;5114048;28;20031;-71
2021/07/13 08:17:02;;;;;;;32.60;23.52;;;22.50;99.90;;;;;;5113928;28;20096;-71
2021/07/13 08:19:28;;;;;;;28.73;21.92;;;22.40;99.90;;;;;;5113042;28;20093;-72
2021/07/13 08:21:55;;;;;;;30.02;21.40;;;22.50;99.90;;;;;;5113188;28;20103;-72
2021/07/13 08:24:21;;;;;;;25.60;22.17;;;22.40;99.90;;;;;;5113275;28;20040;-72
2021/07/13 08:26:47;;;;;;;33.00;24.13;;;22.40;99.90;;;;;;5113380;28;20040;-72
2021/07/13 08:29:13;;;;;;;28.17;24.92;;;22.40;99.90;;;;;;5112101;28;20071;-72
2021/07/13 08:31:39;;;;;;;28.83;25.23;;;22.30;99.90;;;;;;5113636;28;20063;-72
2021/07/13 08:34:07;;;;;;;27.63;23.75;;;22.20;99.90;;;;;;5113581;28;20032;-72
2021/07/13 08:36:32;;;;;;;27.25;24.15;;;22.20;99.90;;;;;;5113492;28;20032;-72
2021/07/13 08:38:58;;;;;;;26.90;23.92;;;22.20;99.90;;;;;;5113102;28;20051;-72
2021/07/13 08:41:24;;;;;;;29.13;24.88;;;22.20;99.90;;;;;;5113146;28;20043;-71
2021/07/13 08:43:50;;;;;;;27.25;23.65;;;22.30;99.90;;;;;;5113071;28;20349;-72
2021/07/13 08:46:17;;;;;;;27.27;24.08;;;22.30;99.90;;;;;;5113113;28;20391;-71
2021/07/13 08:48:46;;;;;;;26.35;23.48;;;22.30;99.90;;;;;;5112853;28;20040;-72
2021/07/13 08:51:12;;;;;;;27.73;23.70;;;22.20;99.90;;;;;;5113385;28;20038;-71
2021/07/13 08:53:37;;;;;;;28.15;25.25;;;22.20;99.90;;;;;;5115450;28;20044;-71
2021/07/13 08:56:03;;;;;;;29.88;24.95;;;22.20;99.90;;;;;;5117475;28;20368;-71
2021/07/13 08:58:30;;;;;;;27.50;22.65;;;22.20;99.90;;;;;;5116614;28;20043;-72
2021/07/13 09:00:56;;;;;;;30.23;25.38;;;22.20;99.90;;;;;;5116488;28;20050;-72
2021/07/13 09:03:22;;;;;;;30.05;22.90;;;22.20;99.90;;;;;;5116732;28;20039;-72
2021/07/13 09:05:52;;;;;;;27.05;23.38;;;22.10;99.90;;;;;;5116812;28;20038;-71
2021/07/13 09:08:22;;;;;;;24.20;21.42;;;22.10;99.90;;;;;;5117319;28;20071;-72
2021/07/13 09:11:11;;;;;;;26.95;23.00;;;22.10;99.90;;;;;;5116077;28;20073;-71
2021/07/13 09:13:41;;;;;;;25.27;22.67;;;21.90;99.90;;;;;;5116580;28;20036;-71
2021/07/13 09:16:11;;;;;;;24.58;21.98;;;22.00;99.90;;;;;;5116370;28;20067;-71
2021/07/13 09:18:39;;;;;;;25.23;22.42;;;22.00;99.90;;;;;;5113616;28;20067;-71
2021/07/13 09:21:15;;;;;;;24.55;22.10;;;22.00;99.90;;;;;;5116120;28;20047;-71
2021/07/13 09:24:14;;;;;;;24.67;21.05;;;22.00;99.90;;;;;;5116138;28;20035;-71
2021/07/13 09:26:46;;;;;;;24.73;21.88;;;22.10;99.90;;;;;;5116559;28;20031;-71
2021/07/13 09:29:33;;;;;;;23.35;20.55;;;22.00;99.90;;;;;;5116007;28;20032;-72
2021/07/13 09:32:28;;;;;;;23.38;20.95;;;22.20;99.90;;;;;;5115472;28;20391;-71
2021/07/13 09:35:00;;;;;;;24.10;20.60;;;22.10;99.90;;;;;;5116476;28;20039;-70
2021/07/13 09:37:35;;;;;;;25.75;20.40;;;22.10;99.90;;;;;;5116594;28;20044;-71
2021/07/13 09:40:00;;;;;;;24.90;20.70;;;22.20;99.90;;;;;;5115529;28;20485;-70
2021/07/13 09:42:28;;;;;;;23.20;19.13;;;22.30;99.90;;;;;;5115700;28;20072;-71
2021/07/13 09:45:15;;;;;;;25.67;20.33;;;22.30;99.90;;;;;;5115866;28;20032;-71
2021/07/13 09:47:41;;;;;;;22.58;20.17;;;22.30;99.90;;;;;;5116061;28;20464;-72
2021/07/13 09:50:11;;;;;;;27.65;22.27;;;22.40;99.90;;;;;;5115524;28;20043;-72
2021/07/13 09:52:38;;;;;;;28.55;21.95;;;22.40;99.90;;;;;;5115602;28;20040;-72
2021/07/13 09:55:17;;;;;;;25.73;21.27;;;22.40;99.90;;;;;;5115620;28;20367;-71
2021/07/13 09:57:43;;;;;;;25.55;21.23;;;22.40;99.90;;;;;;5115477;28;20052;-72
2021/07/13 10:00:10;;;;;;;27.90;21.80;;;22.40;99.90;;;;;;5115619;28;20040;-71
2021/07/13 10:02:37;;;;;;;25.25;21.45;;;22.40;99.90;;;;;;5116030;28;20046;-71
2021/07/13 10:05:04;;;;;;;27.15;22.13;;;22.40;99.90;;;;;;5115517;28;20447;-72
2021/07/13 10:07:30;;;;;;;23.30;20.83;;;22.40;99.90;;;;;;5115565;28;20541;-71
2021/07/13 10:10:00;;;;;;;28.77;21.38;;;22.30;99.90;;;;;;5114814;28;20048;-72
2021/07/13 10:12:27;;;;;;;24.65;19.75;;;22.40;99.90;;;;;;5115425;28;20040;-72
2021/07/13 10:14:56;;;;;;;26.60;22.73;;;22.30;99.90;;;;;;5115325;28;20039;-71
2021/07/13 10:17:30;;;;;;;27.17;20.40;;;22.40;99.90;;;;;;5114487;28;20051;-72
2021/07/13 10:20:00;;;;;;;24.52;20.90;;;22.40;99.90;;;;;;5114902;28;20147;-71
2021/07/13 10:22:27;;;;;;;27.17;20.08;;;22.40;99.90;;;;;;5115080;28;20067;-71
2021/07/13 10:24:57;;;;;;;22.63;19.38;;;22.40;99.90;;;;;;5115598;28;20035;-71
2021/07/13 10:27:25;;;;;;;23.95;18.48;;;22.40;99.90;;;;;;5114934;28;20118;-71
2021/07/13 10:29:51;;;;;;;21.10;18.77;;;22.40;99.90;;;;;;5114498;28;20044;-71
2021/07/13 10:32:17;;;;;;;20.50;17.90;;;22.40;99.90;;;;;;5114700;28;20483;-72
2021/07/13 10:34:47;;;;;;;20.58;17.77;;;22.30;99.90;;;;;;5114644;28;20048;-72
2021/07/13 10:37:34;;;;;;;23.02;18.35;;;22.40;99.90;;;;;;5115363;28;20081;-72
2021/07/13 10:40:08;;;;;;;23.90;18.20;;;22.50;99.90;;;;;;5114425;27;20036;-72
2021/07/13 10:42:44;;;;;;;21.90;19.50;;;22.50;99.90;;;;;;5115541;28;20044;-72
2021/07/13 10:45:29;;;;;;;30.38;20.70;;;22.50;99.90;;;;;;5114625;28;20035;-72
2021/07/13 10:47:58;;;;;;;25.05;19.80;;;22.50;99.90;;;;;;5114877;28;20554;-71
2021/07/13 10:50:29;;;;;;;30.50;20.45;;;22.60;99.90;;;;;;5114302;28;20039;-72
2021/07/13 10:52:58;;;;;;;24.90;19.70;;;22.50;99.90;;;;;;5114499;28;20071;-71
2021/07/13 10:55:30;;;;;;;25.98;20.30;;;22.50;99.90;;;;;;5097015;28;20050;-71
2021/07/13 10:58:17;;;;;;;28.35;20.75;;;22.50;99.90;;;;;;5114322;27;20043;-71
2021/07/13 11:00:49;;;;;;;26.40;21.00;;;22.50;99.90;;;;;;5114767;28;20468;-71
2021/07/13 11:03:36;;;;;;;30.58;20.38;;;22.40;99.90;;;;;;5114351;28;20042;-70
2021/07/13 11:06:09;;;;;;;29.52;21.80;;;22.40;99.90;;;;;;5113492;28;20050;-71
2021/07/13 11:08:41;;;;;;;26.58;21.33;;;22.50;99.90;;;;;;5112650;28;20039;-72
2021/07/13 11:11:13;;;;;;;27.35;20.80;;;22.40;99.90;;;;;;5112488;28;20043;-72
2021/07/13 11:13:39;;;;;;;33.00;22.65;;;22.40;99.90;;;;;;5114686;28;20540;-72
2021/07/13 11:16:05;;;;;;;31.67;23.70;;;22.40;99.90;;;;;;5113776;28;20067;-71
2021/07/13 11:18:33;;;;;;;33.08;25.40;;;22.50;99.90;;;;;;5114067;28;20360;-72
2021/07/13 11:21:32;;;;;;;27.02;22.90;;;22.50;99.90;;;;;;5113768;28;20035;-72
2021/07/13 11:24:06;;;;;;;33.05;24.05;;;22.40;99.90;;;;;;5091204;28;20131;-71
2021/07/13 11:26:34;;;;;;;33.08;23.92;;;22.40;99.90;;;;;;5113892;28;20048;-71
2021/07/13 11:29:02;;;;;;;28.23;23.00;;;22.20;99.90;;;;;;5113840;28;20039;-72
2021/07/13 11:31:36;;;;;;;33.53;24.95;;;22.30;99.90;;;;;;5113647;28;20032;-71
2021/07/13 11:34:10;;;;;;;29.95;25.30;;;22.30;99.90;;;;;;5113923;28;20036;-71
2021/07/13 11:36:41;;;;;;;37.75;26.95;;;22.30;99.90;;;;;;5113698;28;20039;-71
2021/07/13 11:39:20;;;;;;;30.25;24.92;;;22.20;99.90;;;;;;5113604;28;20475;-72
2021/07/13 11:41:46;;;;;;;31.50;26.10;;;22.20;99.90;;;;;;5114177;28;20096;-71
2021/07/13 11:44:12;;;;;;;33.72;26.45;;;22.20;99.90;;;;;;5113776;28;20032;-72
2021/07/13 11:46:42;;;;;;;33.35;27.17;;;22.10;99.90;;;;;;5113487;28;20031;-71
2021/07/13 11:49:13;;;;;;;31.98;26.92;;;22.20;99.90;;;;;;5113338;28;20430;-71
2021/07/13 11:52:01;;;;;;;35.35;28.15;;;22.20;99.90;;;;;;5113698;28;20051;-71
2021/07/13 11:54:28;;;;;;;30.23;27.02;;;22.20;99.90;;;;;;5113427;28;20040;-72
2021/07/13 11:56:56;;;;;;;32.97;26.95;;;22.10;99.90;;;;;;5113723;28;20035;-72
2021/07/13 11:59:25;;;;;;;34.60;27.02;;;22.10;99.90;;;;;;5113190;28;20038;-72
2021/07/13 12:01:54;;;;;;;36.45;28.23;;;22.10;99.90;;;;;;5114055;28;20043;-72
2021/07/13 12:04:22;;;;;;;32.83;26.77;;;22.10;99.90;;;;;;5113982;28;20040;-71
2021/07/13 12:06:55;;;;;;;39.03;28.42;;;22.00;99.90;;;;;;5113641;28;20040;-71
2021/07/13 12:09:26;;;;;;;32.55;26.90;;;22.10;99.90;;;;;;5113324;28;20092;-72
2021/07/13 12:11:53;;;;;;;36.97;29.38;;;22.00;99.90;;;;;;5113203;28;20432;-72
2021/07/13 12:14:21;;;;;;;38.55;30.88;;;22.00;99.90;;;;;;5113317;28;20032;-72
2021/07/13 12:16:49;;;;;;;39.53;30.65;;;21.90;99.90;;;;;;5096111;28;20043;-72
2021/07/13 12:19:17;;;;;;;38.88;32.97;;;21.80;99.90;;;;;;5113459;28;20459;-72
2021/07/13 12:21:44;;;;;;;39.60;32.40;;;21.80;99.90;;;;;;5113337;28;20040;-72
2021/07/13 12:24:19;;;;;;;32.75;28.90;;;21.70;99.90;;;;;;5113826;28;20062;-72
2021/07/13 12:26:53;;;;;;;38.35;29.67;;;21.60;99.90;;;;;;5113936;28;20035;-71
2021/07/13 12:29:34;;;;;;;36.28;30.65;;;21.60;99.90;;;;;;5116793;28;20122;-71
2021/07/13 12:32:02;;;;;;;40.05;31.35;;;21.60;99.90;;;;;;5117546;28;20484;-72
2021/07/13 12:34:30;;;;;;;38.40;31.23;;;21.50;99.90;;;;;;5117109;28;20035;-72
2021/07/13 12:37:12;;;;;;;38.17;30.23;;;21.50;99.90;;;;;;5117624;28;20529;-71